METAR AND TAF INFORMATION
TAF OTHH 261702Z 2618/2724 03006KT 8000 NSC BECMG 2700/2702 VRB02KT PROB30 TEMPO 2700/2705 5000 HZ BECMG 2706/2708 04011KT

 AIRPORT MAP

 RUNWAY INFORMATION

 AIRPORT FREQUENCIES

 AIRPORT NEAR NAVIGATION AIDS